sensor_id;sensor_type;location;lat;lon;timestamp;P1;durP1;ratioP1;P2;durP2;ratioP2
79403;SDS011;68858;48.642;9.142;2023-11-22T00:00:25;9.80;;;8.43;;
79403;SDS011;68858;48.642;9.142;2023-11-22T00:02:51;10.17;;;8.03;;
79403;SDS011;68858;48.642;9.142;2023-11-22T00:05:16;10.40;;;8.13;;
79403;SDS011;68858;48.642;9.142;2023-11-22T00:07:42;10.63;;;7.37;;
79403;SDS011;68858;48.642;9.142;2023-11-22T00:10:07;10.10;;;7.57;;
79403;SDS011;68858;48.642;9.142;2023-11-22T00:12:34;9.67;;;6.80;;
79403;SDS011;68858;48.642;9.142;2023-11-22T00:15:06;10.40;;;7.50;;
79403;SDS011;68858;48.642;9.142;2023-11-22T00:17:32;8.47;;;7.33;;
79403;SDS011;68858;48.642;9.142;2023-11-22T00:19:59;9.73;;;7.60;;
79403;SDS011;68858;48.642;9.142;2023-11-22T00:22:27;10.70;;;7.93;;
79403;SDS011;68858;48.642;9.142;2023-11-22T00:24:52;8.83;;;6.90;;
79403;SDS011;68858;48.642;9.142;2023-11-22T00:27:18;7.77;;;6.23;;
79403;SDS011;68858;48.642;9.142;2023-11-22T00:29:44;8.30;;;6.70;;
79403;SDS011;68858;48.642;9.142;2023-11-22T00:32:09;7.60;;;6.47;;
79403;SDS011;68858;48.642;9.142;2023-11-22T00:34:34;7.97;;;6.50;;
79403;SDS011;68858;48.642;9.142;2023-11-22T00:37:00;7.60;;;6.30;;
79403;SDS011;68858;48.642;9.142;2023-11-22T00:39:25;9.17;;;6.50;;
79403;SDS011;68858;48.642;9.142;2023-11-22T00:41:51;6.07;;;4.97;;
79403;SDS011;68858;48.642;9.142;2023-11-22T00:44:16;4.20;;;3.60;;
79403;SDS011;68858;48.642;9.142;2023-11-22T00:46:43;5.60;;;4.30;;
79403;SDS011;68858;48.642;9.142;2023-11-22T00:49:10;3.87;;;2.80;;
79403;SDS011;68858;48.642;9.142;2023-11-22T00:51:36;2.80;;;2.60;;
79403;SDS011;68858;48.642;9.142;2023-11-22T00:54:01;2.70;;;2.50;;
79403;SDS011;68858;48.642;9.142;2023-11-22T00:56:27;3.53;;;2.90;;
79403;SDS011;68858;48.642;9.142;2023-11-22T00:58:53;3.40;;;3.10;;
79403;SDS011;68858;48.642;9.142;2023-11-22T01:01:19;4.50;;;3.20;;
79403;SDS011;68858;48.642;9.142;2023-11-22T01:03:45;3.90;;;3.43;;
79403;SDS011;68858;48.642;9.142;2023-11-22T01:06:11;3.40;;;3.00;;
79403;SDS011;68858;48.642;9.142;2023-11-22T01:08:37;3.03;;;2.80;;
79403;SDS011;68858;48.642;9.142;2023-11-22T01:11:04;4.13;;;3.07;;
79403;SDS011;68858;48.642;9.142;2023-11-22T01:13:30;4.23;;;3.30;;
79403;SDS011;68858;48.642;9.142;2023-11-22T01:15:56;3.50;;;3.20;;
79403;SDS011;68858;48.642;9.142;2023-11-22T01:18:21;4.90;;;4.40;;
79403;SDS011;68858;48.642;9.142;2023-11-22T01:20:47;5.20;;;4.43;;
79403;SDS011;68858;48.642;9.142;2023-11-22T01:23:14;5.80;;;5.20;;
79403;SDS011;68858;48.642;9.142;2023-11-22T01:25:40;5.80;;;5.20;;
79403;SDS011;68858;48.642;9.142;2023-11-22T01:28:05;6.07;;;4.57;;
79403;SDS011;68858;48.642;9.142;2023-11-22T01:30:31;5.50;;;5.00;;
79403;SDS011;68858;48.642;9.142;2023-11-22T01:32:57;5.57;;;4.67;;
79403;SDS011;68858;48.642;9.142;2023-11-22T01:35:23;6.07;;;4.80;;
79403;SDS011;68858;48.642;9.142;2023-11-22T01:37:48;6.63;;;5.73;;
79403;SDS011;68858;48.642;9.142;2023-11-22T01:40:14;7.73;;;5.67;;
79403;SDS011;68858;48.642;9.142;2023-11-22T01:42:39;5.87;;;5.00;;
79403;SDS011;68858;48.642;9.142;2023-11-22T01:45:05;8.97;;;7.00;;
79403;SDS011;68858;48.642;9.142;2023-11-22T01:47:31;7.67;;;6.60;;
79403;SDS011;68858;48.642;9.142;2023-11-22T01:49:57;7.23;;;6.53;;
79403;SDS011;68858;48.642;9.142;2023-11-22T01:52:22;6.97;;;6.20;;
79403;SDS011;68858;48.642;9.142;2023-11-22T01:54:48;7.77;;;6.30;;
79403;SDS011;68858;48.642;9.142;2023-11-22T01:57:14;6.80;;;6.10;;
79403;SDS011;68858;48.642;9.142;2023-11-22T01:59:40;7.50;;;6.37;;
79403;SDS011;68858;48.642;9.142;2023-11-22T02:02:05;7.37;;;6.23;;
79403;SDS011;68858;48.642;9.142;2023-11-22T02:04:31;6.87;;;5.67;;
79403;SDS011;68858;48.642;9.142;2023-11-22T02:06:58;6.30;;;5.23;;
79403;SDS011;68858;48.642;9.142;2023-11-22T02:09:23;6.47;;;5.77;;
79403;SDS011;68858;48.642;9.142;2023-11-22T02:11:50;6.93;;;5.70;;
79403;SDS011;68858;48.642;9.142;2023-11-22T02:14:15;6.00;;;5.03;;
79403;SDS011;68858;48.642;9.142;2023-11-22T02:16:41;6.17;;;4.93;;
79403;SDS011;68858;48.642;9.142;2023-11-22T02:19:07;5.33;;;4.67;;
79403;SDS011;68858;48.642;9.142;2023-11-22T02:21:33;5.43;;;4.50;;
79403;SDS011;68858;48.642;9.142;2023-11-22T02:23:58;5.83;;;5.23;;
79403;SDS011;68858;48.642;9.142;2023-11-22T02:26:24;6.10;;;5.10;;
79403;SDS011;68858;48.642;9.142;2023-11-22T02:28:50;7.50;;;5.73;;
79403;SDS011;68858;48.642;9.142;2023-11-22T02:31:15;6.17;;;4.93;;
79403;SDS011;68858;48.642;9.142;2023-11-22T02:33:40;7.20;;;6.03;;
79403;SDS011;68858;48.642;9.142;2023-11-22T02:36:07;5.87;;;5.10;;
79403;SDS011;68858;48.642;9.142;2023-11-22T02:38:32;7.13;;;5.30;;
79403;SDS011;68858;48.642;9.142;2023-11-22T02:40:59;6.60;;;6.00;;
79403;SDS011;68858;48.642;9.142;2023-11-22T02:43:25;6.70;;;5.93;;
79403;SDS011;68858;48.642;9.142;2023-11-22T02:45:51;6.47;;;5.30;;
79403;SDS011;68858;48.642;9.142;2023-11-22T02:48:17;8.00;;;5.60;;
79403;SDS011;68858;48.642;9.142;2023-11-22T02:50:43;5.83;;;5.13;;
79403;SDS011;68858;48.642;9.142;2023-11-22T02:53:09;6.33;;;5.17;;
79403;SDS011;68858;48.642;9.142;2023-11-22T02:55:34;6.80;;;4.97;;
79403;SDS011;68858;48.642;9.142;2023-11-22T02:57:59;6.07;;;5.10;;
79403;SDS011;68858;48.642;9.142;2023-11-22T03:00:25;6.30;;;5.70;;
79403;SDS011;68858;48.642;9.142;2023-11-22T03:02:51;6.17;;;5.57;;
79403;SDS011;68858;48.642;9.142;2023-11-22T03:05:22;6.67;;;5.30;;
79403;SDS011;68858;48.642;9.142;2023-11-22T03:07:49;6.80;;;5.60;;
79403;SDS011;68858;48.642;9.142;2023-11-22T03:10:16;5.50;;;4.87;;
79403;SDS011;68858;48.642;9.142;2023-11-22T03:12:48;5.47;;;4.93;;
79403;SDS011;68858;48.642;9.142;2023-11-22T03:15:13;5.30;;;4.80;;
79403;SDS011;68858;48.642;9.142;2023-11-22T03:17:38;6.77;;;4.97;;
79403;SDS011;68858;48.642;9.142;2023-11-22T03:20:04;7.67;;;5.30;;
79403;SDS011;68858;48.642;9.142;2023-11-22T03:22:34;5.97;;;4.93;;
79403;SDS011;68858;48.642;9.142;2023-11-22T03:25:00;5.80;;;5.13;;
79403;SDS011;68858;48.642;9.142;2023-11-22T03:27:27;5.20;;;4.70;;
79403;SDS011;68858;48.642;9.142;2023-11-22T03:29:52;8.27;;;4.93;;
79403;SDS011;68858;48.642;9.142;2023-11-22T03:32:18;6.17;;;4.63;;
79403;SDS011;68858;48.642;9.142;2023-11-22T03:34:43;6.63;;;5.03;;
79403;SDS011;68858;48.642;9.142;2023-11-22T03:37:09;6.07;;;4.80;;
79403;SDS011;68858;48.642;9.142;2023-11-22T03:39:34;6.80;;;5.07;;
79403;SDS011;68858;48.642;9.142;2023-11-22T03:42:00;6.07;;;5.47;;
79403;SDS011;68858;48.642;9.142;2023-11-22T03:44:26;6.17;;;5.40;;
79403;SDS011;68858;48.642;9.142;2023-11-22T03:46:51;6.70;;;5.10;;
79403;SDS011;68858;48.642;9.142;2023-11-22T03:49:16;6.80;;;5.33;;
79403;SDS011;68858;48.642;9.142;2023-11-22T03:51:43;6.20;;;4.73;;
79403;SDS011;68858;48.642;9.142;2023-11-22T03:54:08;6.30;;;4.93;;
79403;SDS011;68858;48.642;9.142;2023-11-22T03:56:36;5.87;;;4.87;;
79403;SDS011;68858;48.642;9.142;2023-11-22T03:59:01;5.97;;;4.57;;
79403;SDS011;68858;48.642;9.142;2023-11-22T04:01:28;6.37;;;4.90;;
79403;SDS011;68858;48.642;9.142;2023-11-22T04:03:53;6.33;;;5.00;;
79403;SDS011;68858;48.642;9.142;2023-11-22T04:06:19;5.50;;;4.50;;
79403;SDS011;68858;48.642;9.142;2023-11-22T04:08:45;5.73;;;3.90;;
79403;SDS011;68858;48.642;9.142;2023-11-22T04:11:14;4.90;;;4.40;;
79403;SDS011;68858;48.642;9.142;2023-11-22T04:13:40;4.90;;;4.13;;
79403;SDS011;68858;48.642;9.142;2023-11-22T04:16:06;6.07;;;4.60;;
79403;SDS011;68858;48.642;9.142;2023-11-22T04:18:36;5.33;;;4.83;;
79403;SDS011;68858;48.642;9.142;2023-11-22T04:21:02;4.60;;;4.13;;
79403;SDS011;68858;48.642;9.142;2023-11-22T04:23:32;6.17;;;4.40;;
79403;SDS011;68858;48.642;9.142;2023-11-22T04:25:59;4.77;;;4.00;;
79403;SDS011;68858;48.642;9.142;2023-11-22T04:28:25;7.27;;;5.33;;
79403;SDS011;68858;48.642;9.142;2023-11-22T04:30:51;6.17;;;4.97;;
79403;SDS011;68858;48.642;9.142;2023-11-22T04:33:17;6.10;;;4.73;;
79403;SDS011;68858;48.642;9.142;2023-11-22T04:35:43;4.97;;;4.40;;
79403;SDS011;68858;48.642;9.142;2023-11-22T04:38:08;5.53;;;4.97;;
79403;SDS011;68858;48.642;9.142;2023-11-22T04:40:34;7.57;;;4.80;;
79403;SDS011;68858;48.642;9.142;2023-11-22T04:42:59;5.80;;;4.90;;
79403;SDS011;68858;48.642;9.142;2023-11-22T04:45:25;4.90;;;4.30;;
79403;SDS011;68858;48.642;9.142;2023-11-22T04:47:50;4.97;;;4.10;;
79403;SDS011;68858;48.642;9.142;2023-11-22T04:50:15;4.63;;;3.97;;
79403;SDS011;68858;48.642;9.142;2023-11-22T04:52:41;4.33;;;3.93;;
79403;SDS011;68858;48.642;9.142;2023-11-22T04:55:06;5.73;;;4.70;;
79403;SDS011;68858;48.642;9.142;2023-11-22T04:57:32;5.87;;;4.77;;
79403;SDS011;68858;48.642;9.142;2023-11-22T04:59:58;5.57;;;4.73;;
79403;SDS011;68858;48.642;9.142;2023-11-22T05:02:26;5.10;;;3.87;;
79403;SDS011;68858;48.642;9.142;2023-11-22T05:04:52;4.40;;;4.00;;
79403;SDS011;68858;48.642;9.142;2023-11-22T05:07:18;6.27;;;4.40;;
79403;SDS011;68858;48.642;9.142;2023-11-22T05:09:44;5.40;;;4.90;;
79403;SDS011;68858;48.642;9.142;2023-11-22T05:12:10;5.33;;;4.83;;
79403;SDS011;68858;48.642;9.142;2023-11-22T05:14:36;5.10;;;4.57;;
79403;SDS011;68858;48.642;9.142;2023-11-22T05:17:03;5.53;;;4.23;;
79403;SDS011;68858;48.642;9.142;2023-11-22T05:19:30;4.90;;;4.37;;
79403;SDS011;68858;48.642;9.142;2023-11-22T05:21:56;5.00;;;4.30;;
79403;SDS011;68858;48.642;9.142;2023-11-22T05:24:22;4.53;;;4.10;;
79403;SDS011;68858;48.642;9.142;2023-11-22T05:26:48;4.37;;;3.90;;
79403;SDS011;68858;48.642;9.142;2023-11-22T05:29:14;5.20;;;4.70;;
79403;SDS011;68858;48.642;9.142;2023-11-22T05:31:39;4.33;;;3.93;;
79403;SDS011;68858;48.642;9.142;2023-11-22T05:34:06;4.83;;;4.33;;
79403;SDS011;68858;48.642;9.142;2023-11-22T05:36:31;4.70;;;4.03;;
79403;SDS011;68858;48.642;9.142;2023-11-22T05:39:03;4.43;;;3.53;;
79403;SDS011;68858;48.642;9.142;2023-11-22T05:41:29;5.23;;;4.20;;
79403;SDS011;68858;48.642;9.142;2023-11-22T05:43:54;4.10;;;3.70;;
79403;SDS011;68858;48.642;9.142;2023-11-22T05:46:20;4.27;;;3.87;;
79403;SDS011;68858;48.642;9.142;2023-11-22T05:48:52;4.33;;;3.67;;
79403;SDS011;68858;48.642;9.142;2023-11-22T05:51:17;3.77;;;3.47;;
79403;SDS011;68858;48.642;9.142;2023-11-22T05:53:43;4.63;;;3.57;;
79403;SDS011;68858;48.642;9.142;2023-11-22T05:56:09;4.40;;;4.00;;
79403;SDS011;68858;48.642;9.142;2023-11-22T05:58:34;5.10;;;4.13;;
79403;SDS011;68858;48.642;9.142;2023-11-22T06:01:06;4.33;;;3.93;;
79403;SDS011;68858;48.642;9.142;2023-11-22T06:03:32;4.83;;;3.50;;
79403;SDS011;68858;48.642;9.142;2023-11-22T06:05:59;4.60;;;3.90;;
79403;SDS011;68858;48.642;9.142;2023-11-22T06:08:24;4.00;;;3.60;;
79403;SDS011;68858;48.642;9.142;2023-11-22T06:10:50;3.90;;;3.50;;
79403;SDS011;68858;48.642;9.142;2023-11-22T06:13:17;3.97;;;3.57;;
79403;SDS011;68858;48.642;9.142;2023-11-22T06:15:42;4.83;;;3.97;;
79403;SDS011;68858;48.642;9.142;2023-11-22T06:18:08;4.87;;;4.10;;
79403;SDS011;68858;48.642;9.142;2023-11-22T06:20:33;5.00;;;4.13;;
79403;SDS011;68858;48.642;9.142;2023-11-22T06:22:59;5.47;;;4.13;;
79403;SDS011;68858;48.642;9.142;2023-11-22T06:25:25;4.83;;;4.27;;
79403;SDS011;68858;48.642;9.142;2023-11-22T06:27:50;4.80;;;4.00;;
79403;SDS011;68858;48.642;9.142;2023-11-22T06:30:15;5.67;;;4.23;;
79403;SDS011;68858;48.642;9.142;2023-11-22T06:32:41;6.67;;;4.70;;
79403;SDS011;68858;48.642;9.142;2023-11-22T06:35:08;4.83;;;4.33;;
79403;SDS011;68858;48.642;9.142;2023-11-22T06:37:35;4.23;;;3.83;;
79403;SDS011;68858;48.642;9.142;2023-11-22T06:40:01;5.40;;;4.47;;
79403;SDS011;68858;48.642;9.142;2023-11-22T06:42:27;5.73;;;4.57;;
79403;SDS011;68858;48.642;9.142;2023-11-22T06:44:52;4.83;;;4.30;;
79403;SDS011;68858;48.642;9.142;2023-11-22T06:47:20;5.47;;;4.57;;
79403;SDS011;68858;48.642;9.142;2023-11-22T06:49:46;5.57;;;4.90;;
79403;SDS011;68858;48.642;9.142;2023-11-22T06:52:11;6.03;;;5.20;;
79403;SDS011;68858;48.642;9.142;2023-11-22T06:54:37;5.50;;;4.83;;
79403;SDS011;68858;48.642;9.142;2023-11-22T06:57:03;7.13;;;5.20;;
79403;SDS011;68858;48.642;9.142;2023-11-22T06:59:28;5.57;;;4.73;;
79403;SDS011;68858;48.642;9.142;2023-11-22T07:01:56;5.60;;;4.70;;
79403;SDS011;68858;48.642;9.142;2023-11-22T07:04:22;5.13;;;4.53;;
79403;SDS011;68858;48.642;9.142;2023-11-22T07:06:48;6.57;;;5.13;;
79403;SDS011;68858;48.642;9.142;2023-11-22T07:09:14;6.40;;;5.43;;
79403;SDS011;68858;48.642;9.142;2023-11-22T07:11:39;6.23;;;5.13;;
79403;SDS011;68858;48.642;9.142;2023-11-22T07:14:05;6.07;;;5.40;;
79403;SDS011;68858;48.642;9.142;2023-11-22T07:16:31;7.30;;;5.40;;
79403;SDS011;68858;48.642;9.142;2023-11-22T07:18:59;6.03;;;4.87;;
79403;SDS011;68858;48.642;9.142;2023-11-22T07:21:28;5.53;;;4.93;;
79403;SDS011;68858;48.642;9.142;2023-11-22T07:23:56;5.53;;;4.93;;
79403;SDS011;68858;48.642;9.142;2023-11-22T07:26:22;6.17;;;4.83;;
79403;SDS011;68858;48.642;9.142;2023-11-22T07:28:47;5.87;;;4.93;;
79403;SDS011;68858;48.642;9.142;2023-11-22T07:31:13;5.77;;;5.17;;
79403;SDS011;68858;48.642;9.142;2023-11-22T07:33:39;5.67;;;5.07;;
79403;SDS011;68858;48.642;9.142;2023-11-22T07:36:05;5.83;;;4.40;;
79403;SDS011;68858;48.642;9.142;2023-11-22T07:38:31;6.23;;;4.93;;
79403;SDS011;68858;48.642;9.142;2023-11-22T07:40:57;5.33;;;4.83;;
79403;SDS011;68858;48.642;9.142;2023-11-22T07:43:22;6.30;;;4.73;;
79403;SDS011;68858;48.642;9.142;2023-11-22T07:45:54;5.23;;;4.73;;
79403;SDS011;68858;48.642;9.142;2023-11-22T07:48:19;4.70;;;3.87;;
79403;SDS011;68858;48.642;9.142;2023-11-22T07:50:45;4.60;;;4.10;;
79403;SDS011;68858;48.642;9.142;2023-11-22T07:53:13;6.30;;;4.43;;
79403;SDS011;68858;48.642;9.142;2023-11-22T07:55:39;6.87;;;6.07;;
79403;SDS011;68858;48.642;9.142;2023-11-22T07:58:05;9.73;;;7.07;;
79403;SDS011;68858;48.642;9.142;2023-11-22T08:00:33;4.97;;;4.47;;
79403;SDS011;68858;48.642;9.142;2023-11-22T08:02:59;4.57;;;4.10;;
79403;SDS011;68858;48.642;9.142;2023-11-22T08:05:28;7.87;;;6.37;;
79403;SDS011;68858;48.642;9.142;2023-11-22T08:07:54;13.50;;;10.53;;
79403;SDS011;68858;48.642;9.142;2023-11-22T08:10:20;7.13;;;6.43;;
79403;SDS011;68858;48.642;9.142;2023-11-22T08:12:46;7.77;;;6.73;;
79403;SDS011;68858;48.642;9.142;2023-11-22T08:15:13;9.57;;;7.23;;
79403;SDS011;68858;48.642;9.142;2023-11-22T08:17:39;8.40;;;6.93;;
79403;SDS011;68858;48.642;9.142;2023-11-22T08:20:05;8.60;;;7.30;;
79403;SDS011;68858;48.642;9.142;2023-11-22T08:22:34;7.13;;;6.40;;
79403;SDS011;68858;48.642;9.142;2023-11-22T08:25:02;6.73;;;6.03;;
79403;SDS011;68858;48.642;9.142;2023-11-22T08:27:29;6.07;;;4.90;;
79403;SDS011;68858;48.642;9.142;2023-11-22T08:29:54;7.57;;;6.77;;
79403;SDS011;68858;48.642;9.142;2023-11-22T08:32:20;8.90;;;8.10;;
79403;SDS011;68858;48.642;9.142;2023-11-22T08:34:49;5.47;;;4.97;;
79403;SDS011;68858;48.642;9.142;2023-11-22T08:37:14;7.50;;;6.80;;
79403;SDS011;68858;48.642;9.142;2023-11-22T08:39:40;5.90;;;5.43;;
79403;SDS011;68858;48.642;9.142;2023-11-22T08:42:06;5.20;;;4.70;;
79403;SDS011;68858;48.642;9.142;2023-11-22T08:44:35;4.63;;;4.00;;
79403;SDS011;68858;48.642;9.142;2023-11-22T08:47:01;6.33;;;4.27;;
79403;SDS011;68858;48.642;9.142;2023-11-22T08:49:28;4.13;;;3.30;;
79403;SDS011;68858;48.642;9.142;2023-11-22T08:51:53;3.67;;;3.07;;
79403;SDS011;68858;48.642;9.142;2023-11-22T08:54:19;4.23;;;3.83;;
79403;SDS011;68858;48.642;9.142;2023-11-22T08:56:44;4.23;;;3.60;;
79403;SDS011;68858;48.642;9.142;2023-11-22T08:59:11;5.33;;;4.83;;
79403;SDS011;68858;48.642;9.142;2023-11-22T09:01:37;4.93;;;3.87;;
79403;SDS011;68858;48.642;9.142;2023-11-22T09:04:02;5.60;;;3.93;;
79403;SDS011;68858;48.642;9.142;2023-11-22T09:06:28;4.47;;;4.07;;
79403;SDS011;68858;48.642;9.142;2023-11-22T09:08:54;4.83;;;4.33;;
79403;SDS011;68858;48.642;9.142;2023-11-22T09:11:20;5.83;;;4.57;;
79403;SDS011;68858;48.642;9.142;2023-11-22T09:13:48;4.83;;;4.33;;
79403;SDS011;68858;48.642;9.142;2023-11-22T09:16:15;5.10;;;4.13;;
79403;SDS011;68858;48.642;9.142;2023-11-22T09:18:41;4.27;;;3.87;;
79403;SDS011;68858;48.642;9.142;2023-11-22T09:21:08;5.40;;;4.67;;
79403;SDS011;68858;48.642;9.142;2023-11-22T09:23:35;5.70;;;4.33;;
79403;SDS011;68858;48.642;9.142;2023-11-22T09:26:01;6.20;;;4.17;;
79403;SDS011;68858;48.642;9.142;2023-11-22T09:28:27;6.37;;;4.67;;
79403;SDS011;68858;48.642;9.142;2023-11-22T09:30:53;6.20;;;4.63;;
79403;SDS011;68858;48.642;9.142;2023-11-22T09:33:21;5.10;;;4.03;;
79403;SDS011;68858;48.642;9.142;2023-11-22T09:35:46;4.20;;;3.80;;
79403;SDS011;68858;48.642;9.142;2023-11-22T09:38:12;4.33;;;3.93;;
79403;SDS011;68858;48.642;9.142;2023-11-22T09:40:42;5.03;;;3.83;;
79403;SDS011;68858;48.642;9.142;2023-11-22T09:43:09;4.07;;;3.67;;
79403;SDS011;68858;48.642;9.142;2023-11-22T09:45:34;5.30;;;4.47;;
79403;SDS011;68858;48.642;9.142;2023-11-22T09:48:02;5.27;;;4.60;;
79403;SDS011;68858;48.642;9.142;2023-11-22T09:50:40;4.50;;;3.97;;
79403;SDS011;68858;48.642;9.142;2023-11-22T09:53:31;6.07;;;4.27;;
79403;SDS011;68858;48.642;9.142;2023-11-22T09:55:58;4.67;;;3.97;;
79403;SDS011;68858;48.642;9.142;2023-11-22T09:58:24;6.43;;;4.87;;
79403;SDS011;68858;48.642;9.142;2023-11-22T10:00:50;5.10;;;4.40;;
79403;SDS011;68858;48.642;9.142;2023-11-22T10:03:17;5.10;;;4.10;;
79403;SDS011;68858;48.642;9.142;2023-11-22T10:05:45;5.97;;;4.23;;
79403;SDS011;68858;48.642;9.142;2023-11-22T10:08:10;4.30;;;3.87;;
79403;SDS011;68858;48.642;9.142;2023-11-22T10:10:36;5.63;;;4.53;;
79403;SDS011;68858;48.642;9.142;2023-11-22T10:13:03;4.87;;;3.90;;
79403;SDS011;68858;48.642;9.142;2023-11-22T10:15:29;5.37;;;4.07;;
79403;SDS011;68858;48.642;9.142;2023-11-22T10:17:57;5.63;;;4.13;;
79403;SDS011;68858;48.642;9.142;2023-11-22T10:20:25;5.63;;;4.53;;
79403;SDS011;68858;48.642;9.142;2023-11-22T10:23:01;5.90;;;4.60;;
79403;SDS011;68858;48.642;9.142;2023-11-22T10:25:27;5.70;;;4.60;;
79403;SDS011;68858;48.642;9.142;2023-11-22T10:27:54;6.73;;;4.53;;
79403;SDS011;68858;48.642;9.142;2023-11-22T10:30:20;5.20;;;4.40;;
79403;SDS011;68858;48.642;9.142;2023-11-22T10:32:45;6.50;;;5.10;;
79403;SDS011;68858;48.642;9.142;2023-11-22T10:35:11;6.73;;;5.27;;
79403;SDS011;68858;48.642;9.142;2023-11-22T10:37:41;5.80;;;4.93;;
79403;SDS011;68858;48.642;9.142;2023-11-22T10:40:09;6.80;;;5.00;;
79403;SDS011;68858;48.642;9.142;2023-11-22T10:42:36;6.90;;;4.63;;
79403;SDS011;68858;48.642;9.142;2023-11-22T10:45:03;6.97;;;5.43;;
79403;SDS011;68858;48.642;9.142;2023-11-22T10:47:32;5.63;;;4.97;;
79403;SDS011;68858;48.642;9.142;2023-11-22T10:50:03;5.97;;;5.00;;
79403;SDS011;68858;48.642;9.142;2023-11-22T10:52:28;7.97;;;5.37;;
79403;SDS011;68858;48.642;9.142;2023-11-22T10:54:55;6.00;;;4.73;;
79403;SDS011;68858;48.642;9.142;2023-11-22T10:57:30;6.47;;;4.97;;
79403;SDS011;68858;48.642;9.142;2023-11-22T10:59:56;5.33;;;4.83;;
79403;SDS011;68858;48.642;9.142;2023-11-22T11:02:26;5.60;;;4.90;;
79403;SDS011;68858;48.642;9.142;2023-11-22T11:04:58;6.77;;;5.00;;
79403;SDS011;68858;48.642;9.142;2023-11-22T11:07:25;6.03;;;5.43;;
79403;SDS011;68858;48.642;9.142;2023-11-22T11:09:52;7.47;;;5.33;;
79403;SDS011;68858;48.642;9.142;2023-11-22T11:12:20;8.77;;;4.93;;
79403;SDS011;68858;48.642;9.142;2023-11-22T11:14:46;6.37;;;5.17;;
79403;SDS011;68858;48.642;9.142;2023-11-22T11:17:12;6.07;;;5.43;;
79403;SDS011;68858;48.642;9.142;2023-11-22T11:19:40;6.27;;;5.40;;
79403;SDS011;68858;48.642;9.142;2023-11-22T11:22:09;6.83;;;6.13;;
79403;SDS011;68858;48.642;9.142;2023-11-22T11:24:38;7.57;;;6.53;;
79403;SDS011;68858;48.642;9.142;2023-11-22T11:27:06;6.97;;;6.27;;
79403;SDS011;68858;48.642;9.142;2023-11-22T11:29:36;6.30;;;5.70;;
79403;SDS011;68858;48.642;9.142;2023-11-22T11:32:11;6.53;;;5.60;;
79403;SDS011;68858;48.642;9.142;2023-11-22T11:34:48;7.27;;;6.23;;
79403;SDS011;68858;48.642;9.142;2023-11-22T11:37:14;6.37;;;5.77;;
79403;SDS011;68858;48.642;9.142;2023-11-22T11:39:40;6.47;;;5.57;;
79403;SDS011;68858;48.642;9.142;2023-11-22T11:42:10;7.83;;;6.30;;
79403;SDS011;68858;48.642;9.142;2023-11-22T11:44:36;8.40;;;6.30;;
79403;SDS011;68858;48.642;9.142;2023-11-22T11:47:09;7.17;;;6.10;;
79403;SDS011;68858;48.642;9.142;2023-11-22T11:49:36;8.57;;;6.23;;
79403;SDS011;68858;48.642;9.142;2023-11-22T11:52:04;6.17;;;5.57;;
79403;SDS011;68858;48.642;9.142;2023-11-22T11:54:29;6.87;;;6.17;;
79403;SDS011;68858;48.642;9.142;2023-11-22T11:56:58;7.17;;;6.30;;
79403;SDS011;68858;48.642;9.142;2023-11-22T11:59:26;6.70;;;6.00;;
79403;SDS011;68858;48.642;9.142;2023-11-22T12:01:53;6.13;;;5.47;;
79403;SDS011;68858;48.642;9.142;2023-11-22T12:04:22;8.17;;;5.60;;
79403;SDS011;68858;48.642;9.142;2023-11-22T12:06:48;6.63;;;5.93;;
79403;SDS011;68858;48.642;9.142;2023-11-22T12:09:13;7.73;;;6.07;;
79403;SDS011;68858;48.642;9.142;2023-11-22T12:11:39;6.07;;;5.47;;
79403;SDS011;68858;48.642;9.142;2023-11-22T12:14:05;8.03;;;5.90;;
79403;SDS011;68858;48.642;9.142;2023-11-22T12:16:31;6.63;;;5.63;;
79403;SDS011;68858;48.642;9.142;2023-11-22T12:18:56;7.53;;;5.97;;
79403;SDS011;68858;48.642;9.142;2023-11-22T12:21:23;6.37;;;5.77;;
79403;SDS011;68858;48.642;9.142;2023-11-22T12:23:51;5.90;;;5.30;;
79403;SDS011;68858;48.642;9.142;2023-11-22T12:26:17;6.80;;;5.40;;
79403;SDS011;68858;48.642;9.142;2023-11-22T12:28:45;6.80;;;5.77;;
79403;SDS011;68858;48.642;9.142;2023-11-22T12:31:13;6.30;;;5.60;;
79403;SDS011;68858;48.642;9.142;2023-11-22T12:33:40;6.03;;;5.43;;
79403;SDS011;68858;48.642;9.142;2023-11-22T12:36:06;6.37;;;5.77;;
79403;SDS011;68858;48.642;9.142;2023-11-22T12:38:34;6.07;;;5.47;;
79403;SDS011;68858;48.642;9.142;2023-11-22T12:41:00;6.77;;;5.53;;
79403;SDS011;68858;48.642;9.142;2023-11-22T12:43:28;6.80;;;5.77;;
79403;SDS011;68858;48.642;9.142;2023-11-22T12:46:03;9.17;;;7.30;;
79403;SDS011;68858;48.642;9.142;2023-11-22T12:48:32;14.57;;;11.43;;
79403;SDS011;68858;48.642;9.142;2023-11-22T12:50:59;11.27;;;9.00;;
79403;SDS011;68858;48.642;9.142;2023-11-22T12:53:25;10.27;;;8.37;;
79403;SDS011;68858;48.642;9.142;2023-11-22T12:55:53;9.63;;;8.17;;
79403;SDS011;68858;48.642;9.142;2023-11-22T12:58:20;8.53;;;6.33;;
79403;SDS011;68858;48.642;9.142;2023-11-22T13:00:47;8.33;;;6.87;;
79403;SDS011;68858;48.642;9.142;2023-11-22T13:03:14;19.87;;;14.47;;
79403;SDS011;68858;48.642;9.142;2023-11-22T13:05:40;16.20;;;11.37;;
79403;SDS011;68858;48.642;9.142;2023-11-22T13:08:13;16.37;;;13.10;;
79403;SDS011;68858;48.642;9.142;2023-11-22T13:10:39;11.20;;;9.57;;
79403;SDS011;68858;48.642;9.142;2023-11-22T13:13:06;12.07;;;8.33;;
79403;SDS011;68858;48.642;9.142;2023-11-22T13:15:34;13.60;;;11.20;;
79403;SDS011;68858;48.642;9.142;2023-11-22T13:17:59;8.00;;;6.93;;
79403;SDS011;68858;48.642;9.142;2023-11-22T13:20:25;9.23;;;6.83;;
79403;SDS011;68858;48.642;9.142;2023-11-22T13:22:51;7.80;;;6.37;;
79403;SDS011;68858;48.642;9.142;2023-11-22T13:25:17;7.40;;;5.53;;
79403;SDS011;68858;48.642;9.142;2023-11-22T13:27:44;8.17;;;5.73;;
79403;SDS011;68858;48.642;9.142;2023-11-22T13:30:15;7.87;;;5.77;;
79403;SDS011;68858;48.642;9.142;2023-11-22T13:32:44;6.73;;;5.73;;
79403;SDS011;68858;48.642;9.142;2023-11-22T13:35:11;8.13;;;5.77;;
79403;SDS011;68858;48.642;9.142;2023-11-22T13:37:49;6.60;;;5.73;;
79403;SDS011;68858;48.642;9.142;2023-11-22T13:40:15;7.30;;;5.97;;
79403;SDS011;68858;48.642;9.142;2023-11-22T13:42:42;6.57;;;5.57;;
79403;SDS011;68858;48.642;9.142;2023-11-22T13:45:12;5.23;;;4.63;;
79403;SDS011;68858;48.642;9.142;2023-11-22T13:47:48;6.63;;;5.93;;
79403;SDS011;68858;48.642;9.142;2023-11-22T13:50:16;6.70;;;6.00;;
79403;SDS011;68858;48.642;9.142;2023-11-22T13:52:47;6.47;;;5.80;;
79403;SDS011;68858;48.642;9.142;2023-11-22T13:55:13;8.93;;;5.90;;
79403;SDS011;68858;48.642;9.142;2023-11-22T13:57:39;6.13;;;5.23;;
79403;SDS011;68858;48.642;9.142;2023-11-22T14:00:05;6.47;;;5.70;;
79403;SDS011;68858;48.642;9.142;2023-11-22T14:02:34;7.00;;;5.80;;
79403;SDS011;68858;48.642;9.142;2023-11-22T14:05:01;6.50;;;5.57;;
79403;SDS011;68858;48.642;9.142;2023-11-22T14:07:28;6.50;;;5.53;;
79403;SDS011;68858;48.642;9.142;2023-11-22T14:09:54;6.03;;;5.27;;
79403;SDS011;68858;48.642;9.142;2023-11-22T14:12:19;7.07;;;5.40;;
79403;SDS011;68858;48.642;9.142;2023-11-22T14:14:45;8.00;;;5.63;;
79403;SDS011;68858;48.642;9.142;2023-11-22T14:17:10;6.43;;;5.67;;
79403;SDS011;68858;48.642;9.142;2023-11-22T14:19:36;6.07;;;5.20;;
79403;SDS011;68858;48.642;9.142;2023-11-22T14:22:01;7.63;;;6.10;;
79403;SDS011;68858;48.642;9.142;2023-11-22T14:24:27;7.27;;;5.67;;
79403;SDS011;68858;48.642;9.142;2023-11-22T14:26:55;6.47;;;5.57;;
79403;SDS011;68858;48.642;9.142;2023-11-22T14:29:22;7.20;;;6.23;;
79403;SDS011;68858;48.642;9.142;2023-11-22T14:31:47;6.67;;;5.90;;
79403;SDS011;68858;48.642;9.142;2023-11-22T14:34:13;7.10;;;5.77;;
79403;SDS011;68858;48.642;9.142;2023-11-22T14:36:38;7.00;;;5.90;;
79403;SDS011;68858;48.642;9.142;2023-11-22T14:39:04;6.17;;;5.57;;
79403;SDS011;68858;48.642;9.142;2023-11-22T14:41:32;6.13;;;5.40;;
79403;SDS011;68858;48.642;9.142;2023-11-22T14:43:57;6.63;;;5.70;;